sensor_id;sensor_type;location;lat;lon;timestamp;P1;durP1;ratioP1;P2;durP2;ratioP2
54909;SDS011;63189;51.240;9.964;2022-12-07T00:01:38;12.75;;;6.88;;
54909;SDS011;63189;51.240;9.964;2022-12-07T00:04:07;11.90;;;7.72;;
54909;SDS011;63189;51.240;9.964;2022-12-07T00:06:42;15.57;;;9.15;;
54909;SDS011;63189;51.240;9.964;2022-12-07T00:09:10;14.38;;;8.35;;
54909;SDS011;63189;51.240;9.964;2022-12-07T00:11:37;13.02;;;7.90;;
54909;SDS011;63189;51.240;9.964;2022-12-07T00:14:05;13.38;;;7.78;;
54909;SDS011;63189;51.240;9.964;2022-12-07T00:16:32;14.60;;;8.93;;
54909;SDS011;63189;51.240;9.964;2022-12-07T00:18:58;13.82;;;8.20;;
54909;SDS011;63189;51.240;9.964;2022-12-07T00:21:25;13.65;;;8.18;;
54909;SDS011;63189;51.240;9.964;2022-12-07T00:23:52;13.77;;;8.55;;
54909;SDS011;63189;51.240;9.964;2022-12-07T00:26:20;15.27;;;8.90;;
54909;SDS011;63189;51.240;9.964;2022-12-07T00:28:48;13.60;;;8.40;;
54909;SDS011;63189;51.240;9.964;2022-12-07T00:31:15;13.50;;;8.55;;
54909;SDS011;63189;51.240;9.964;2022-12-07T00:33:42;14.05;;;8.70;;
54909;SDS011;63189;51.240;9.964;2022-12-07T00:36:09;15.00;;;8.98;;
54909;SDS011;63189;51.240;9.964;2022-12-07T00:38:37;15.88;;;9.82;;
54909;SDS011;63189;51.240;9.964;2022-12-07T00:41:04;18.15;;;9.98;;
54909;SDS011;63189;51.240;9.964;2022-12-07T00:43:32;17.23;;;9.60;;
54909;SDS011;63189;51.240;9.964;2022-12-07T00:45:57;17.00;;;9.23;;
54909;SDS011;63189;51.240;9.964;2022-12-07T00:48:23;13.93;;;9.18;;
54909;SDS011;63189;51.240;9.964;2022-12-07T00:50:49;15.35;;;9.27;;
54909;SDS011;63189;51.240;9.964;2022-12-07T00:53:15;15.77;;;9.77;;
54909;SDS011;63189;51.240;9.964;2022-12-07T00:55:40;14.75;;;8.98;;
54909;SDS011;63189;51.240;9.964;2022-12-07T00:58:06;15.65;;;9.38;;
54909;SDS011;63189;51.240;9.964;2022-12-07T01:00:31;18.92;;;9.43;;
54909;SDS011;63189;51.240;9.964;2022-12-07T01:02:57;15.57;;;9.73;;
54909;SDS011;63189;51.240;9.964;2022-12-07T01:05:23;16.60;;;10.23;;
54909;SDS011;63189;51.240;9.964;2022-12-07T01:07:48;16.90;;;10.05;;
54909;SDS011;63189;51.240;9.964;2022-12-07T01:10:13;16.75;;;10.45;;
54909;SDS011;63189;51.240;9.964;2022-12-07T01:12:39;17.67;;;10.70;;
54909;SDS011;63189;51.240;9.964;2022-12-07T01:15:05;16.15;;;10.25;;
54909;SDS011;63189;51.240;9.964;2022-12-07T01:17:31;16.25;;;10.05;;
54909;SDS011;63189;51.240;9.964;2022-12-07T01:19:56;16.98;;;9.90;;
54909;SDS011;63189;51.240;9.964;2022-12-07T01:22:22;16.15;;;9.32;;
54909;SDS011;63189;51.240;9.964;2022-12-07T01:24:47;17.92;;;10.38;;
54909;SDS011;63189;51.240;9.964;2022-12-07T01:27:13;15.52;;;10.25;;
54909;SDS011;63189;51.240;9.964;2022-12-07T01:29:39;17.73;;;10.40;;
54909;SDS011;63189;51.240;9.964;2022-12-07T01:32:04;19.13;;;10.82;;
54909;SDS011;63189;51.240;9.964;2022-12-07T01:34:30;19.17;;;10.90;;
54909;SDS011;63189;51.240;9.964;2022-12-07T01:36:55;17.80;;;10.65;;
54909;SDS011;63189;51.240;9.964;2022-12-07T01:39:20;20.10;;;11.02;;
54909;SDS011;63189;51.240;9.964;2022-12-07T01:41:46;17.73;;;10.45;;
54909;SDS011;63189;51.240;9.964;2022-12-07T01:46:44;16.83;;;10.35;;
54909;SDS011;63189;51.240;9.964;2022-12-07T01:49:26;17.58;;;10.75;;
54909;SDS011;63189;51.240;9.964;2022-12-07T01:51:58;17.50;;;9.98;;
54909;SDS011;63189;51.240;9.964;2022-12-07T01:54:32;17.33;;;9.65;;
54909;SDS011;63189;51.240;9.964;2022-12-07T01:56:58;17.80;;;10.70;;
54909;SDS011;63189;51.240;9.964;2022-12-07T01:59:24;20.67;;;11.25;;
54909;SDS011;63189;51.240;9.964;2022-12-07T02:01:51;16.40;;;10.23;;
54909;SDS011;63189;51.240;9.964;2022-12-07T02:04:17;17.27;;;10.27;;
54909;SDS011;63189;51.240;9.964;2022-12-07T02:06:43;17.08;;;10.10;;
54909;SDS011;63189;51.240;9.964;2022-12-07T02:09:10;17.48;;;10.55;;
54909;SDS011;63189;51.240;9.964;2022-12-07T02:11:37;19.15;;;10.70;;
54909;SDS011;63189;51.240;9.964;2022-12-07T02:14:03;18.70;;;10.90;;
54909;SDS011;63189;51.240;9.964;2022-12-07T02:16:35;19.25;;;11.43;;
54909;SDS011;63189;51.240;9.964;2022-12-07T02:25:21;16.60;;;10.40;;
54909;SDS011;63189;51.240;9.964;2022-12-07T02:27:50;15.85;;;9.45;;
54909;SDS011;63189;51.240;9.964;2022-12-07T02:30:21;16.20;;;9.73;;
54909;SDS011;63189;51.240;9.964;2022-12-07T02:32:57;16.55;;;10.30;;
54909;SDS011;63189;51.240;9.964;2022-12-07T02:38:16;14.93;;;8.65;;
54909;SDS011;63189;51.240;9.964;2022-12-07T02:41:00;14.63;;;8.77;;
54909;SDS011;63189;51.240;9.964;2022-12-07T02:43:42;14.85;;;9.25;;
54909;SDS011;63189;51.240;9.964;2022-12-07T02:46:15;13.93;;;8.38;;
54909;SDS011;63189;51.240;9.964;2022-12-07T02:51:11;11.70;;;7.28;;
54909;SDS011;63189;51.240;9.964;2022-12-07T02:53:41;11.57;;;7.43;;
54909;SDS011;63189;51.240;9.964;2022-12-07T03:01:36;10.85;;;6.05;;
54909;SDS011;63189;51.240;9.964;2022-12-07T03:07:43;8.60;;;6.13;;
54909;SDS011;63189;51.240;9.964;2022-12-07T03:15:45;7.97;;;4.97;;
54909;SDS011;63189;51.240;9.964;2022-12-07T03:18:20;7.55;;;5.10;;
54909;SDS011;63189;51.240;9.964;2022-12-07T03:20:48;10.07;;;5.50;;
54909;SDS011;63189;51.240;9.964;2022-12-07T03:23:17;7.28;;;4.55;;
54909;SDS011;63189;51.240;9.964;2022-12-07T03:25:45;8.13;;;5.35;;
54909;SDS011;63189;51.240;9.964;2022-12-07T03:28:16;8.50;;;4.97;;
54909;SDS011;63189;51.240;9.964;2022-12-07T03:33:39;8.18;;;5.47;;
54909;SDS011;63189;51.240;9.964;2022-12-07T03:36:13;9.13;;;5.78;;
54909;SDS011;63189;51.240;9.964;2022-12-07T03:38:52;12.18;;;8.18;;
54909;SDS011;63189;51.240;9.964;2022-12-07T03:41:24;14.02;;;8.35;;
54909;SDS011;63189;51.240;9.964;2022-12-07T03:43:52;13.10;;;8.02;;
54909;SDS011;63189;51.240;9.964;2022-12-07T03:49:04;13.73;;;9.55;;
54909;SDS011;63189;51.240;9.964;2022-12-07T03:51:47;14.80;;;9.38;;
54909;SDS011;63189;51.240;9.964;2022-12-07T03:56:55;12.57;;;8.50;;
54909;SDS011;63189;51.240;9.964;2022-12-07T03:59:22;16.63;;;9.65;;
54909;SDS011;63189;51.240;9.964;2022-12-07T04:01:52;15.98;;;9.43;;
54909;SDS011;63189;51.240;9.964;2022-12-07T04:04:19;13.88;;;8.80;;
54909;SDS011;63189;51.240;9.964;2022-12-07T04:06:45;12.10;;;8.00;;
54909;SDS011;63189;51.240;9.964;2022-12-07T04:09:10;14.23;;;8.50;;
54909;SDS011;63189;51.240;9.964;2022-12-07T04:11:36;12.40;;;7.57;;
54909;SDS011;63189;51.240;9.964;2022-12-07T04:14:01;10.82;;;6.70;;
54909;SDS011;63189;51.240;9.964;2022-12-07T04:16:45;8.30;;;5.55;;
54909;SDS011;63189;51.240;9.964;2022-12-07T04:19:15;8.32;;;5.50;;
54909;SDS011;63189;51.240;9.964;2022-12-07T04:21:42;8.32;;;5.47;;
54909;SDS011;63189;51.240;9.964;2022-12-07T04:24:07;6.88;;;4.82;;
54909;SDS011;63189;51.240;9.964;2022-12-07T04:26:33;6.28;;;3.95;;
54909;SDS011;63189;51.240;9.964;2022-12-07T04:28:58;5.13;;;3.42;;
54909;SDS011;63189;51.240;9.964;2022-12-07T04:31:23;5.80;;;3.90;;
54909;SDS011;63189;51.240;9.964;2022-12-07T04:33:49;5.25;;;3.60;;
54909;SDS011;63189;51.240;9.964;2022-12-07T04:36:14;4.63;;;3.30;;
54909;SDS011;63189;51.240;9.964;2022-12-07T04:38:39;5.40;;;3.63;;
54909;SDS011;63189;51.240;9.964;2022-12-07T04:41:08;6.25;;;4.25;;
54909;SDS011;63189;51.240;9.964;2022-12-07T04:43:35;6.03;;;4.30;;
54909;SDS011;63189;51.240;9.964;2022-12-07T04:46:00;6.55;;;4.43;;
54909;SDS011;63189;51.240;9.964;2022-12-07T04:48:26;7.15;;;5.00;;
54909;SDS011;63189;51.240;9.964;2022-12-07T04:50:51;8.10;;;5.70;;
54909;SDS011;63189;51.240;9.964;2022-12-07T04:53:17;9.15;;;5.50;;
54909;SDS011;63189;51.240;9.964;2022-12-07T04:55:43;10.07;;;6.50;;
54909;SDS011;63189;51.240;9.964;2022-12-07T04:58:09;9.88;;;6.28;;
54909;SDS011;63189;51.240;9.964;2022-12-07T05:00:34;8.55;;;5.80;;
54909;SDS011;63189;51.240;9.964;2022-12-07T05:02:59;10.57;;;6.25;;
54909;SDS011;63189;51.240;9.964;2022-12-07T05:05:25;9.35;;;6.22;;
54909;SDS011;63189;51.240;9.964;2022-12-07T05:07:50;9.63;;;6.47;;
54909;SDS011;63189;51.240;9.964;2022-12-07T05:10:16;10.98;;;7.38;;
54909;SDS011;63189;51.240;9.964;2022-12-07T05:12:41;10.60;;;7.22;;
54909;SDS011;63189;51.240;9.964;2022-12-07T05:15:07;10.93;;;7.38;;
54909;SDS011;63189;51.240;9.964;2022-12-07T05:17:32;15.52;;;8.38;;
54909;SDS011;63189;51.240;9.964;2022-12-07T05:19:58;11.85;;;8.35;;
54909;SDS011;63189;51.240;9.964;2022-12-07T05:22:23;13.70;;;8.60;;
54909;SDS011;63189;51.240;9.964;2022-12-07T05:24:52;16.98;;;10.18;;
54909;SDS011;63189;51.240;9.964;2022-12-07T05:27:18;16.23;;;10.98;;
54909;SDS011;63189;51.240;9.964;2022-12-07T05:29:43;15.48;;;9.50;;
54909;SDS011;63189;51.240;9.964;2022-12-07T05:32:09;15.43;;;10.23;;
54909;SDS011;63189;51.240;9.964;2022-12-07T05:34:34;15.25;;;10.25;;
54909;SDS011;63189;51.240;9.964;2022-12-07T05:36:59;16.27;;;10.10;;
54909;SDS011;63189;51.240;9.964;2022-12-07T05:39:25;17.45;;;10.65;;
54909;SDS011;63189;51.240;9.964;2022-12-07T05:41:50;18.30;;;10.18;;
54909;SDS011;63189;51.240;9.964;2022-12-07T05:44:34;17.20;;;10.48;;
54909;SDS011;63189;51.240;9.964;2022-12-07T05:46:59;17.38;;;10.48;;
54909;SDS011;63189;51.240;9.964;2022-12-07T05:49:24;17.95;;;10.05;;
54909;SDS011;63189;51.240;9.964;2022-12-07T05:51:49;16.45;;;9.98;;
54909;SDS011;63189;51.240;9.964;2022-12-07T05:54:15;14.18;;;9.00;;
54909;SDS011;63189;51.240;9.964;2022-12-07T05:56:40;19.63;;;10.05;;
54909;SDS011;63189;51.240;9.964;2022-12-07T05:59:05;14.35;;;8.70;;
54909;SDS011;63189;51.240;9.964;2022-12-07T06:01:52;15.18;;;8.95;;
54909;SDS011;63189;51.240;9.964;2022-12-07T06:04:23;17.10;;;9.55;;
54909;SDS011;63189;51.240;9.964;2022-12-07T06:06:50;15.95;;;9.13;;
54909;SDS011;63189;51.240;9.964;2022-12-07T06:09:15;15.23;;;9.15;;
54909;SDS011;63189;51.240;9.964;2022-12-07T06:11:41;19.20;;;11.35;;
54909;SDS011;63189;51.240;9.964;2022-12-07T06:16:50;18.02;;;9.95;;
54909;SDS011;63189;51.240;9.964;2022-12-07T06:19:16;18.13;;;9.25;;
54909;SDS011;63189;51.240;9.964;2022-12-07T06:21:41;14.43;;;8.20;;
54909;SDS011;63189;51.240;9.964;2022-12-07T06:24:07;18.88;;;8.05;;
54909;SDS011;63189;51.240;9.964;2022-12-07T06:26:35;16.35;;;8.10;;
54909;SDS011;63189;51.240;9.964;2022-12-07T06:29:01;17.30;;;8.98;;
54909;SDS011;63189;51.240;9.964;2022-12-07T06:31:26;18.17;;;9.02;;
54909;SDS011;63189;51.240;9.964;2022-12-07T06:33:51;17.92;;;9.88;;
54909;SDS011;63189;51.240;9.964;2022-12-07T06:36:21;18.08;;;9.45;;
54909;SDS011;63189;51.240;9.964;2022-12-07T06:38:46;15.32;;;8.98;;
54909;SDS011;63189;51.240;9.964;2022-12-07T06:41:12;18.45;;;8.80;;
54909;SDS011;63189;51.240;9.964;2022-12-07T06:43:37;12.00;;;7.82;;
54909;SDS011;63189;51.240;9.964;2022-12-07T06:46:03;17.08;;;9.25;;
54909;SDS011;63189;51.240;9.964;2022-12-07T06:48:28;15.95;;;8.50;;
54909;SDS011;63189;51.240;9.964;2022-12-07T06:50:54;18.23;;;8.68;;
54909;SDS011;63189;51.240;9.964;2022-12-07T06:53:19;15.05;;;8.25;;
54909;SDS011;63189;51.240;9.964;2022-12-07T06:55:44;14.63;;;8.65;;
54909;SDS011;63189;51.240;9.964;2022-12-07T06:58:09;16.10;;;8.80;;
54909;SDS011;63189;51.240;9.964;2022-12-07T07:00:35;16.25;;;8.30;;
54909;SDS011;63189;51.240;9.964;2022-12-07T07:03:00;13.50;;;8.23;;
54909;SDS011;63189;51.240;9.964;2022-12-07T07:05:26;12.00;;;7.72;;
54909;SDS011;63189;51.240;9.964;2022-12-07T07:07:51;14.18;;;7.38;;
54909;SDS011;63189;51.240;9.964;2022-12-07T07:10:17;14.98;;;7.90;;
54909;SDS011;63189;51.240;9.964;2022-12-07T07:12:42;15.63;;;9.15;;
54909;SDS011;63189;51.240;9.964;2022-12-07T07:15:08;13.45;;;8.15;;
54909;SDS011;63189;51.240;9.964;2022-12-07T07:17:34;15.15;;;8.70;;
54909;SDS011;63189;51.240;9.964;2022-12-07T07:19:59;15.57;;;7.65;;
54909;SDS011;63189;51.240;9.964;2022-12-07T07:22:28;15.43;;;8.35;;
54909;SDS011;63189;51.240;9.964;2022-12-07T07:24:53;17.35;;;9.23;;
54909;SDS011;63189;51.240;9.964;2022-12-07T07:27:18;14.25;;;8.93;;
54909;SDS011;63189;51.240;9.964;2022-12-07T07:29:43;14.40;;;7.72;;
54909;SDS011;63189;51.240;9.964;2022-12-07T07:32:09;13.40;;;7.47;;
54909;SDS011;63189;51.240;9.964;2022-12-07T07:34:34;13.82;;;7.53;;
54909;SDS011;63189;51.240;9.964;2022-12-07T07:36:59;11.15;;;6.25;;
54909;SDS011;63189;51.240;9.964;2022-12-07T07:39:25;16.58;;;7.40;;
54909;SDS011;63189;51.240;9.964;2022-12-07T07:41:50;13.68;;;7.00;;
54909;SDS011;63189;51.240;9.964;2022-12-07T07:44:16;14.63;;;7.72;;
54909;SDS011;63189;51.240;9.964;2022-12-07T07:46:41;12.15;;;6.68;;
54909;SDS011;63189;51.240;9.964;2022-12-07T07:49:07;11.90;;;6.28;;
54909;SDS011;63189;51.240;9.964;2022-12-07T07:51:34;14.32;;;5.90;;
54909;SDS011;63189;51.240;9.964;2022-12-07T07:53:59;14.50;;;6.75;;
54909;SDS011;63189;51.240;9.964;2022-12-07T07:56:24;11.45;;;6.25;;
54909;SDS011;63189;51.240;9.964;2022-12-07T07:58:52;13.05;;;6.63;;
54909;SDS011;63189;51.240;9.964;2022-12-07T08:01:18;12.43;;;6.40;;
54909;SDS011;63189;51.240;9.964;2022-12-07T08:03:44;15.45;;;7.55;;
54909;SDS011;63189;51.240;9.964;2022-12-07T08:06:11;16.27;;;7.60;;
54909;SDS011;63189;51.240;9.964;2022-12-07T08:08:36;17.83;;;6.50;;
54909;SDS011;63189;51.240;9.964;2022-12-07T08:11:04;12.68;;;6.95;;
54909;SDS011;63189;51.240;9.964;2022-12-07T08:13:33;14.25;;;6.82;;
54909;SDS011;63189;51.240;9.964;2022-12-07T08:15:58;13.15;;;6.45;;
54909;SDS011;63189;51.240;9.964;2022-12-07T08:18:29;13.40;;;5.75;;
54909;SDS011;63189;51.240;9.964;2022-12-07T08:21:01;12.77;;;6.70;;
54909;SDS011;63189;51.240;9.964;2022-12-07T08:23:26;9.80;;;5.25;;
54909;SDS011;63189;51.240;9.964;2022-12-07T08:25:52;15.52;;;5.72;;
54909;SDS011;63189;51.240;9.964;2022-12-07T08:28:17;14.05;;;5.68;;
54909;SDS011;63189;51.240;9.964;2022-12-07T08:30:43;14.68;;;6.10;;
54909;SDS011;63189;51.240;9.964;2022-12-07T08:33:08;14.00;;;5.55;;
54909;SDS011;63189;51.240;9.964;2022-12-07T08:35:35;10.98;;;5.75;;
54909;SDS011;63189;51.240;9.964;2022-12-07T08:38:00;10.48;;;6.18;;
54909;SDS011;63189;51.240;9.964;2022-12-07T08:40:27;14.98;;;6.38;;
54909;SDS011;63189;51.240;9.964;2022-12-07T08:42:53;14.45;;;6.60;;
54909;SDS011;63189;51.240;9.964;2022-12-07T08:45:19;14.85;;;6.57;;
54909;SDS011;63189;51.240;9.964;2022-12-07T08:47:47;19.13;;;6.43;;
54909;SDS011;63189;51.240;9.964;2022-12-07T08:50:13;10.27;;;5.20;;
54909;SDS011;63189;51.240;9.964;2022-12-07T08:52:39;12.38;;;4.63;;
54909;SDS011;63189;51.240;9.964;2022-12-07T08:55:06;8.13;;;4.20;;
54909;SDS011;63189;51.240;9.964;2022-12-07T08:57:34;11.10;;;4.70;;
54909;SDS011;63189;51.240;9.964;2022-12-07T09:00:00;11.75;;;5.18;;
54909;SDS011;63189;51.240;9.964;2022-12-07T09:02:25;9.30;;;4.20;;
54909;SDS011;63189;51.240;9.964;2022-12-07T09:04:51;10.48;;;4.38;;
54909;SDS011;63189;51.240;9.964;2022-12-07T09:07:16;8.95;;;4.70;;
54909;SDS011;63189;51.240;9.964;2022-12-07T09:09:42;11.98;;;5.38;;
54909;SDS011;63189;51.240;9.964;2022-12-07T09:12:07;8.85;;;4.50;;
54909;SDS011;63189;51.240;9.964;2022-12-07T09:14:33;10.40;;;5.15;;
54909;SDS011;63189;51.240;9.964;2022-12-07T09:17:05;11.93;;;5.65;;
54909;SDS011;63189;51.240;9.964;2022-12-07T09:19:35;10.90;;;5.00;;
54909;SDS011;63189;51.240;9.964;2022-12-07T09:22:00;8.23;;;4.85;;
54909;SDS011;63189;51.240;9.964;2022-12-07T09:24:26;11.45;;;5.03;;
54909;SDS011;63189;51.240;9.964;2022-12-07T09:26:52;11.38;;;5.10;;
54909;SDS011;63189;51.240;9.964;2022-12-07T09:29:17;8.45;;;4.18;;
54909;SDS011;63189;51.240;9.964;2022-12-07T09:31:42;11.48;;;4.97;;
54909;SDS011;63189;51.240;9.964;2022-12-07T09:34:07;7.75;;;4.25;;
54909;SDS011;63189;51.240;9.964;2022-12-07T09:36:33;11.40;;;5.00;;
54909;SDS011;63189;51.240;9.964;2022-12-07T09:38:58;10.18;;;5.13;;
54909;SDS011;63189;51.240;9.964;2022-12-07T09:41:24;13.23;;;4.40;;
54909;SDS011;63189;51.240;9.964;2022-12-07T09:43:52;11.25;;;4.00;;
54909;SDS011;63189;51.240;9.964;2022-12-07T09:46:23;6.65;;;4.20;;
54909;SDS011;63189;51.240;9.964;2022-12-07T09:48:48;7.95;;;3.90;;
54909;SDS011;63189;51.240;9.964;2022-12-07T09:51:19;9.05;;;4.25;;
54909;SDS011;63189;51.240;9.964;2022-12-07T09:53:47;13.48;;;5.50;;
54909;SDS011;63189;51.240;9.964;2022-12-07T09:56:13;9.02;;;4.93;;
54909;SDS011;63189;51.240;9.964;2022-12-07T09:58:40;8.45;;;4.30;;
54909;SDS011;63189;51.240;9.964;2022-12-07T10:03:33;12.68;;;4.57;;
54909;SDS011;63189;51.240;9.964;2022-12-07T10:06:00;8.48;;;4.22;;
54909;SDS011;63189;51.240;9.964;2022-12-07T10:08:26;8.88;;;3.78;;
54909;SDS011;63189;51.240;9.964;2022-12-07T10:10:52;10.23;;;4.10;;
54909;SDS011;63189;51.240;9.964;2022-12-07T10:13:21;12.25;;;4.55;;
54909;SDS011;63189;51.240;9.964;2022-12-07T10:18:49;7.40;;;3.47;;
54909;SDS011;63189;51.240;9.964;2022-12-07T10:21:15;9.02;;;3.72;;
54909;SDS011;63189;51.240;9.964;2022-12-07T10:24:05;7.07;;;3.17;;
54909;SDS011;63189;51.240;9.964;2022-12-07T10:34:30;10.27;;;3.42;;
54909;SDS011;63189;51.240;9.964;2022-12-07T10:39:41;7.47;;;3.33;;
54909;SDS011;63189;51.240;9.964;2022-12-07T10:42:21;9.38;;;3.83;;
54909;SDS011;63189;51.240;9.964;2022-12-07T10:56:08;12.45;;;3.40;;
54909;SDS011;63189;51.240;9.964;2022-12-07T10:58:40;7.13;;;2.50;;
54909;SDS011;63189;51.240;9.964;2022-12-07T11:01:32;6.68;;;2.63;;
54909;SDS011;63189;51.240;9.964;2022-12-07T11:07:02;5.95;;;2.28;;
54909;SDS011;63189;51.240;9.964;2022-12-07T11:09:52;8.32;;;2.97;;
54909;SDS011;63189;51.240;9.964;2022-12-07T11:15:15;4.38;;;2.28;;
54909;SDS011;63189;51.240;9.964;2022-12-07T11:17:50;6.95;;;1.95;;
54909;SDS011;63189;51.240;9.964;2022-12-07T11:20:37;4.97;;;2.03;;
54909;SDS011;63189;51.240;9.964;2022-12-07T11:26:12;6.03;;;1.88;;
54909;SDS011;63189;51.240;9.964;2022-12-07T11:33:55;8.80;;;2.20;;
54909;SDS011;63189;51.240;9.964;2022-12-07T11:38:55;6.28;;;2.00;;
54909;SDS011;63189;51.240;9.964;2022-12-07T11:41:46;5.10;;;1.98;;
54909;SDS011;63189;51.240;9.964;2022-12-07T11:52:02;5.53;;;1.98;;
54909;SDS011;63189;51.240;9.964;2022-12-07T11:54:32;8.68;;;1.92;;
54909;SDS011;63189;51.240;9.964;2022-12-07T11:57:07;3.45;;;1.60;;
54909;SDS011;63189;51.240;9.964;2022-12-07T11:59:40;1.45;;;1.10;;
54909;SDS011;63189;51.240;9.964;2022-12-07T12:02:45;4.63;;;2.05;;
54909;SDS011;63189;51.240;9.964;2022-12-07T12:05:13;4.20;;;1.60;;
54909;SDS011;63189;51.240;9.964;2022-12-07T12:07:43;3.70;;;1.50;;
54909;SDS011;63189;51.240;9.964;2022-12-07T12:10:38;3.67;;;1.40;;
54909;SDS011;63189;51.240;9.964;2022-12-07T12:13:11;2.60;;;1.83;;
54909;SDS011;63189;51.240;9.964;2022-12-07T12:18:26;4.88;;;1.70;;
54909;SDS011;63189;51.240;9.964;2022-12-07T12:21:14;5.80;;;1.80;;
54909;SDS011;63189;51.240;9.964;2022-12-07T12:23:55;3.45;;;1.90;;
54909;SDS011;63189;51.240;9.964;2022-12-07T12:26:25;6.15;;;1.70;;
54909;SDS011;63189;51.240;9.964;2022-12-07T12:34:29;4.95;;;1.33;;
54909;SDS011;63189;51.240;9.964;2022-12-07T12:37:18;5.40;;;1.88;;
54909;SDS011;63189;51.240;9.964;2022-12-07T12:52:56;4.68;;;2.08;;
54909;SDS011;63189;51.240;9.964;2022-12-07T12:55:30;5.22;;;1.80;;
54909;SDS011;63189;51.240;9.964;2022-12-07T13:00:43;8.25;;;2.13;;
54909;SDS011;63189;51.240;9.964;2022-12-07T13:03:29;4.25;;;1.95;;
54909;SDS011;63189;51.240;9.964;2022-12-07T13:08:49;6.32;;;1.80;;
54909;SDS011;63189;51.240;9.964;2022-12-07T13:19:57;8.88;;;2.47;;
54909;SDS011;63189;51.240;9.964;2022-12-07T13:24:56;4.82;;;1.85;;
54909;SDS011;63189;51.240;9.964;2022-12-07T13:27:24;8.52;;;2.30;;
54909;SDS011;63189;51.240;9.964;2022-12-07T13:29:52;4.55;;;2.30;;
54909;SDS011;63189;51.240;9.964;2022-12-07T13:32:27;7.82;;;2.15;;
54909;SDS011;63189;51.240;9.964;2022-12-07T13:34:54;6.40;;;2.65;;
54909;SDS011;63189;51.240;9.964;2022-12-07T13:37:22;8.15;;;2.25;;
54909;SDS011;63189;51.240;9.964;2022-12-07T13:39:50;6.18;;;2.22;;
54909;SDS011;63189;51.240;9.964;2022-12-07T13:44:53;9.68;;;2.65;;
54909;SDS011;63189;51.240;9.964;2022-12-07T13:50:23;6.13;;;1.95;;
54909;SDS011;63189;51.240;9.964;2022-12-07T13:52:54;8.45;;;2.60;;
54909;SDS011;63189;51.240;9.964;2022-12-07T13:55:20;6.03;;;2.05;;
54909;SDS011;63189;51.240;9.964;2022-12-07T13:57:47;4.60;;;1.95;;
54909;SDS011;63189;51.240;9.964;2022-12-07T14:00:16;3.50;;;1.33;;
54909;SDS011;63189;51.240;9.964;2022-12-07T14:05:27;4.95;;;1.50;;
54909;SDS011;63189;51.240;9.964;2022-12-07T14:07:55;5.13;;;1.83;;
54909;SDS011;63189;51.240;9.964;2022-12-07T14:10:25;3.47;;;1.83;;
54909;SDS011;63189;51.240;9.964;2022-12-07T14:12:53;4.38;;;1.75;;
54909;SDS011;63189;51.240;9.964;2022-12-07T14:15:22;5.13;;;2.75;;
54909;SDS011;63189;51.240;9.964;2022-12-07T14:17:52;9.90;;;3.90;;
54909;SDS011;63189;51.240;9.964;2022-12-07T14:20:36;6.78;;;2.38;;
54909;SDS011;63189;51.240;9.964;2022-12-07T14:23:04;6.13;;;1.92;;
54909;SDS011;63189;51.240;9.964;2022-12-07T14:25:48;3.67;;;1.90;;
54909;SDS011;63189;51.240;9.964;2022-12-07T14:30:55;5.55;;;2.45;;
54909;SDS011;63189;51.240;9.964;2022-12-07T14:33:21;5.30;;;2.08;;
54909;SDS011;63189;51.240;9.964;2022-12-07T14:35:47;6.00;;;2.67;;
54909;SDS011;63189;51.240;9.964;2022-12-07T14:38:14;4.95;;;2.03;;
54909;SDS011;63189;51.240;9.964;2022-12-07T14:40:39;6.95;;;3.25;;
54909;SDS011;63189;51.240;9.964;2022-12-07T14:43:06;4.88;;;2.42;;
54909;SDS011;63189;51.240;9.964;2022-12-07T14:45:36;7.43;;;2.53;;
54909;SDS011;63189;51.240;9.964;2022-12-07T14:48:02;4.97;;;2.67;;
54909;SDS011;63189;51.240;9.964;2022-12-07T14:50:35;3.95;;;2.03;;
54909;SDS011;63189;51.240;9.964;2022-12-07T14:53:09;15.75;;;7.05;;
54909;SDS011;63189;51.240;9.964;2022-12-07T14:55:38;16.23;;;5.43;;
54909;SDS011;63189;51.240;9.964;2022-12-07T14:58:04;9.82;;;4.85;;
54909;SDS011;63189;51.240;9.964;2022-12-07T15:00:29;12.40;;;4.30;;
54909;SDS011;63189;51.240;9.964;2022-12-07T15:02:55;9.90;;;2.95;;
54909;SDS011;63189;51.240;9.964;2022-12-07T15:05:21;8.45;;;3.58;;
54909;SDS011;63189;51.240;9.964;2022-12-07T15:07:47;8.25;;;3.42;;
54909;SDS011;63189;51.240;9.964;2022-12-07T15:10:32;10.48;;;3.03;;
54909;SDS011;63189;51.240;9.964;2022-12-07T15:12:59;5.72;;;2.47;;
54909;SDS011;63189;51.240;9.964;2022-12-07T15:15:46;4.78;;;2.40;;
54909;SDS011;63189;51.240;9.964;2022-12-07T15:18:12;5.60;;;3.50;;
54909;SDS011;63189;51.240;9.964;2022-12-07T15:20:38;7.30;;;3.88;;
54909;SDS011;63189;51.240;9.964;2022-12-07T15:23:04;10.82;;;3.80;;
54909;SDS011;63189;51.240;9.964;2022-12-07T15:25:29;5.88;;;2.65;;
54909;SDS011;63189;51.240;9.964;2022-12-07T15:27:54;6.22;;;2.60;;
54909;SDS011;63189;51.240;9.964;2022-12-07T15:30:20;6.68;;;2.90;;
54909;SDS011;63189;51.240;9.964;2022-12-07T15:32:48;5.05;;;2.05;;
54909;SDS011;63189;51.240;9.964;2022-12-07T15:35:14;4.50;;;2.55;;
54909;SDS011;63189;51.240;9.964;2022-12-07T15:37:40;4.97;;;2.05;;
54909;SDS011;63189;51.240;9.964;2022-12-07T15:40:05;5.35;;;2.42;;
54909;SDS011;63189;51.240;9.964;2022-12-07T15:42:31;7.97;;;3.28;;
54909;SDS011;63189;51.240;9.964;2022-12-07T15:44:56;6.28;;;3.15;;
54909;SDS011;63189;51.240;9.964;2022-12-07T15:47:31;8.00;;;3.05;;
54909;SDS011;63189;51.240;9.964;2022-12-07T15:49:56;9.52;;;3.63;;
54909;SDS011;63189;51.240;9.964;2022-12-07T15:52:22;6.28;;;3.70;;
54909;SDS011;63189;51.240;9.964;2022-12-07T15:54:47;9.60;;;4.50;;
54909;SDS011;63189;51.240;9.964;2022-12-07T15:57:13;10.20;;;3.63;;
54909;SDS011;63189;51.240;9.964;2022-12-07T15:59:39;11.40;;;3.47;;
54909;SDS011;63189;51.240;9.964;2022-12-07T16:02:04;6.93;;;3.50;;
54909;SDS011;63189;51.240;9.964;2022-12-07T16:04:29;9.20;;;3.95;;
54909;SDS011;63189;51.240;9.964;2022-12-07T16:06:55;6.43;;;3.45;;
54909;SDS011;63189;51.240;9.964;2022-12-07T16:09:21;5.20;;;2.80;;
54909;SDS011;63189;51.240;9.964;2022-12-07T16:11:46;4.72;;;2.65;;
54909;SDS011;63189;51.240;9.964;2022-12-07T16:14:11;6.88;;;3.28;;
54909;SDS011;63189;51.240;9.964;2022-12-07T16:16:37;9.30;;;3.38;;
54909;SDS011;63189;51.240;9.964;2022-12-07T16:19:06;9.98;;;3.97;;
54909;SDS011;63189;51.240;9.964;2022-12-07T16:21:33;8.05;;;3.50;;
54909;SDS011;63189;51.240;9.964;2022-12-07T16:23:58;8.55;;;4.10;;
54909;SDS011;63189;51.240;9.964;2022-12-07T16:26:24;7.57;;;4.15;;
54909;SDS011;63189;51.240;9.964;2022-12-07T16:28:49;6.95;;;3.83;;
54909;SDS011;63189;51.240;9.964;2022-12-07T16:31:17;9.55;;;3.72;;
54909;SDS011;63189;51.240;9.964;2022-12-07T16:33:45;8.00;;;3.97;;
54909;SDS011;63189;51.240;9.964;2022-12-07T16:36:11;10.43;;;4.35;;
54909;SDS011;63189;51.240;9.964;2022-12-07T16:38:38;10.70;;;4.20;;
54909;SDS011;63189;51.240;9.964;2022-12-07T16:41:04;12.23;;;4.63;;
54909;SDS011;63189;51.240;9.964;2022-12-07T16:43:31;10.90;;;5.32;;
54909;SDS011;63189;51.240;9.964;2022-12-07T16:45:56;11.27;;;5.15;;
54909;SDS011;63189;51.240;9.964;2022-12-07T16:48:21;11.40;;;4.28;;
54909;SDS011;63189;51.240;9.964;2022-12-07T16:50:47;7.47;;;3.80;;
54909;SDS011;63189;51.240;9.964;2022-12-07T16:53:12;13.27;;;4.30;;
54909;SDS011;63189;51.240;9.964;2022-12-07T16:55:40;8.60;;;4.45;;
54909;SDS011;63189;51.240;9.964;2022-12-07T16:58:10;10.38;;;5.35;;
54909;SDS011;63189;51.240;9.964;2022-12-07T17:00:37;8.93;;;4.78;;
54909;SDS011;63189;51.240;9.964;2022-12-07T17:03:02;8.20;;;4.22;;
54909;SDS011;63189;51.240;9.964;2022-12-07T17:05:29;6.88;;;3.58;;